sensor_id;sensor_type;location;lat;lon;timestamp;temperature;humidity
47921;DHT22;33686;48.770;9.186;2022-10-16T05:17:21;15.00;99.90
47921;DHT22;33686;48.770;9.186;2022-10-16T05:19:47;14.90;99.90
47921;DHT22;33686;48.770;9.186;2022-10-16T05:22:12;14.90;99.90
47921;DHT22;33686;48.770;9.186;2022-10-16T05:24:38;14.90;99.90
47921;DHT22;33686;48.770;9.186;2022-10-16T05:27:03;14.80;99.90
47921;DHT22;33686;48.770;9.186;2022-10-16T05:29:29;14.80;99.90
47921;DHT22;33686;48.770;9.186;2022-10-16T05:31:55;14.80;99.90
47921;DHT22;33686;48.770;9.186;2022-10-16T05:34:21;14.80;99.90
47921;DHT22;33686;48.770;9.186;2022-10-16T05:36:47;14.80;99.90
47921;DHT22;33686;48.770;9.186;2022-10-16T05:39:13;14.80;99.90
47921;DHT22;33686;48.770;9.186;2022-10-16T05:41:39;14.80;99.90
47921;DHT22;33686;48.770;9.186;2022-10-16T05:44:05;14.70;99.90
47921;DHT22;33686;48.770;9.186;2022-10-16T05:46:31;14.80;99.90
47921;DHT22;33686;48.770;9.186;2022-10-16T05:48:57;14.80;99.90
47921;DHT22;33686;48.770;9.186;2022-10-16T05:51:22;14.80;99.90
47921;DHT22;33686;48.770;9.186;2022-10-16T05:53:48;14.80;99.90
47921;DHT22;33686;48.770;9.186;2022-10-16T05:56:13;14.70;99.90
47921;DHT22;33686;48.770;9.186;2022-10-16T05:58:39;14.80;99.90
47921;DHT22;33686;48.770;9.186;2022-10-16T06:01:07;14.90;99.90
47921;DHT22;33686;48.770;9.186;2022-10-16T06:03:33;15.00;99.90
47921;DHT22;33686;48.770;9.186;2022-10-16T06:05:59;15.00;99.90
47921;DHT22;33686;48.770;9.186;2022-10-16T06:08:24;15.00;99.90
47921;DHT22;33686;48.770;9.186;2022-10-16T06:11:00;15.10;99.90
47921;DHT22;33686;48.770;9.186;2022-10-16T06:13:26;15.10;99.90
47921;DHT22;33686;48.770;9.186;2022-10-16T06:15:51;15.20;99.90
47921;DHT22;33686;48.770;9.186;2022-10-16T06:18:17;15.20;99.90
47921;DHT22;33686;48.770;9.186;2022-10-16T06:20:42;15.30;99.90
47921;DHT22;33686;48.770;9.186;2022-10-16T06:23:08;15.30;99.90
47921;DHT22;33686;48.770;9.186;2022-10-16T06:25:33;15.30;99.90
47921;DHT22;33686;48.770;9.186;2022-10-16T06:27:59;15.30;99.90
47921;DHT22;33686;48.770;9.186;2022-10-16T06:30:25;15.30;99.90
47921;DHT22;33686;48.770;9.186;2022-10-16T06:32:50;15.40;99.90
47921;DHT22;33686;48.770;9.186;2022-10-16T06:35:16;15.40;99.90
47921;DHT22;33686;48.770;9.186;2022-10-16T06:37:41;15.40;99.90
47921;DHT22;33686;48.770;9.186;2022-10-16T06:40:07;15.50;99.90
47921;DHT22;33686;48.770;9.186;2022-10-16T06:42:32;15.50;99.90
47921;DHT22;33686;48.770;9.186;2022-10-16T06:44:58;15.70;99.90
47921;DHT22;33686;48.770;9.186;2022-10-16T06:47:24;15.80;99.90
47921;DHT22;33686;48.770;9.186;2022-10-16T06:49:49;16.10;99.90
47921;DHT22;33686;48.770;9.186;2022-10-16T06:52:15;17.10;99.90
47921;DHT22;33686;48.770;9.186;2022-10-16T06:54:40;17.80;99.90
47921;DHT22;33686;48.770;9.186;2022-10-16T06:57:06;17.30;99.90
47921;DHT22;33686;48.770;9.186;2022-10-16T06:59:31;16.90;99.90
47921;DHT22;33686;48.770;9.186;2022-10-16T07:01:57;16.80;99.90
47921;DHT22;33686;48.770;9.186;2022-10-16T07:04:22;16.50;99.90
47921;DHT22;33686;48.770;9.186;2022-10-16T07:06:48;16.50;99.90
47921;DHT22;33686;48.770;9.186;2022-10-16T07:09:13;16.30;99.90
47921;DHT22;33686;48.770;9.186;2022-10-16T07:11:39;16.30;99.90
47921;DHT22;33686;48.770;9.186;2022-10-16T07:14:09;16.30;99.90
47921;DHT22;33686;48.770;9.186;2022-10-16T07:16:36;16.30;99.90
47921;DHT22;33686;48.770;9.186;2022-10-16T07:19:02;16.30;99.90
47921;DHT22;33686;48.770;9.186;2022-10-16T07:21:29;16.50;99.90
47921;DHT22;33686;48.770;9.186;2022-10-16T07:23:56;16.40;99.90
47921;DHT22;33686;48.770;9.186;2022-10-16T07:26:22;16.40;99.90
47921;DHT22;33686;48.770;9.186;2022-10-16T07:28:48;16.40;99.90
47921;DHT22;33686;48.770;9.186;2022-10-16T07:31:14;16.40;99.90
47921;DHT22;33686;48.770;9.186;2022-10-16T07:33:41;16.40;99.90
47921;DHT22;33686;48.770;9.186;2022-10-16T07:36:08;16.40;99.90
47921;DHT22;33686;48.770;9.186;2022-10-16T07:38:33;16.40;99.90
47921;DHT22;33686;48.770;9.186;2022-10-16T07:41:00;16.40;99.90
47921;DHT22;33686;48.770;9.186;2022-10-16T07:43:26;16.40;99.90
47921;DHT22;33686;48.770;9.186;2022-10-16T07:45:52;16.40;99.90
47921;DHT22;33686;48.770;9.186;2022-10-16T07:48:18;16.40;99.90
47921;DHT22;33686;48.770;9.186;2022-10-16T07:50:43;16.50;99.90
47921;DHT22;33686;48.770;9.186;2022-10-16T07:53:09;16.60;99.90
47921;DHT22;33686;48.770;9.186;2022-10-16T07:55:35;16.70;99.90
47921;DHT22;33686;48.770;9.186;2022-10-16T07:58:01;16.70;99.90
47921;DHT22;33686;48.770;9.186;2022-10-16T08:00:26;16.70;99.90
47921;DHT22;33686;48.770;9.186;2022-10-16T08:02:52;16.80;99.90
47921;DHT22;33686;48.770;9.186;2022-10-16T08:05:18;16.90;99.90
47921;DHT22;33686;48.770;9.186;2022-10-16T08:07:48;16.90;99.90
47921;DHT22;33686;48.770;9.186;2022-10-16T08:10:15;17.00;99.90
47921;DHT22;33686;48.770;9.186;2022-10-16T08:12:41;17.10;99.90
47921;DHT22;33686;48.770;9.186;2022-10-16T08:15:07;17.10;99.90
47921;DHT22;33686;48.770;9.186;2022-10-16T08:17:33;17.20;99.90
47921;DHT22;33686;48.770;9.186;2022-10-16T08:19:58;17.30;99.90
47921;DHT22;33686;48.770;9.186;2022-10-16T08:22:24;17.40;99.90
47921;DHT22;33686;48.770;9.186;2022-10-16T08:24:49;17.70;99.90
47921;DHT22;33686;48.770;9.186;2022-10-16T08:27:15;18.20;99.90
47921;DHT22;33686;48.770;9.186;2022-10-16T08:29:40;18.60;99.90
47921;DHT22;33686;48.770;9.186;2022-10-16T08:32:06;18.80;99.90
47921;DHT22;33686;48.770;9.186;2022-10-16T08:34:32;19.00;99.90
47921;DHT22;33686;48.770;9.186;2022-10-16T08:36:57;19.20;99.90
47921;DHT22;33686;48.770;9.186;2022-10-16T08:39:23;19.30;99.90
47921;DHT22;33686;48.770;9.186;2022-10-16T08:47:13;19.50;99.90
47921;DHT22;33686;48.770;9.186;2022-10-16T08:49:42;19.40;99.90
47921;DHT22;33686;48.770;9.186;2022-10-16T08:52:10;19.40;99.90
47921;DHT22;33686;48.770;9.186;2022-10-16T08:54:37;19.40;99.90
47921;DHT22;33686;48.770;9.186;2022-10-16T08:57:14;19.20;99.90
47921;DHT22;33686;48.770;9.186;2022-10-16T08:59:41;19.20;99.90
47921;DHT22;33686;48.770;9.186;2022-10-16T09:02:20;19.20;99.90
47921;DHT22;33686;48.770;9.186;2022-10-16T09:05:33;19.10;99.90
47921;DHT22;33686;48.770;9.186;2022-10-16T09:07:39;19.00;99.90
47921;DHT22;33686;48.770;9.186;2022-10-16T09:22:27;20.20;99.90
47921;DHT22;33686;48.770;9.186;2022-10-16T09:24:54;20.50;99.90
47921;DHT22;33686;48.770;9.186;2022-10-16T09:27:20;20.50;99.90
47921;DHT22;33686;48.770;9.186;2022-10-16T09:29:45;20.50;99.90
47921;DHT22;33686;48.770;9.186;2022-10-16T09:32:12;20.60;99.90
47921;DHT22;33686;48.770;9.186;2022-10-16T09:34:41;20.50;99.90
47921;DHT22;33686;48.770;9.186;2022-10-16T09:37:09;20.30;99.90
47921;DHT22;33686;48.770;9.186;2022-10-16T09:39:45;20.60;99.90
47921;DHT22;33686;48.770;9.186;2022-10-16T09:42:17;20.80;99.90
47921;DHT22;33686;48.770;9.186;2022-10-16T09:44:46;20.80;99.90
47921;DHT22;33686;48.770;9.186;2022-10-16T09:47:14;20.60;99.90
47921;DHT22;33686;48.770;9.186;2022-10-16T09:49:49;20.60;99.90
47921;DHT22;33686;48.770;9.186;2022-10-16T09:52:15;20.60;99.90
47921;DHT22;33686;48.770;9.186;2022-10-16T09:54:48;20.80;99.90
47921;DHT22;33686;48.770;9.186;2022-10-16T09:57:14;21.10;99.90
47921;DHT22;33686;48.770;9.186;2022-10-16T09:59:53;21.20;99.90
47921;DHT22;33686;48.770;9.186;2022-10-16T10:02:29;21.10;99.90
47921;DHT22;33686;48.770;9.186;2022-10-16T10:04:55;21.10;99.90
47921;DHT22;33686;48.770;9.186;2022-10-16T10:07:25;21.00;99.90
47921;DHT22;33686;48.770;9.186;2022-10-16T10:09:51;21.10;99.90
47921;DHT22;33686;48.770;9.186;2022-10-16T10:14:47;21.20;99.90
47921;DHT22;33686;48.770;9.186;2022-10-16T10:17:20;21.30;99.90
47921;DHT22;33686;48.770;9.186;2022-10-16T10:19:47;21.40;99.90
47921;DHT22;33686;48.770;9.186;2022-10-16T10:22:58;21.50;99.90
47921;DHT22;33686;48.770;9.186;2022-10-16T10:35:44;21.80;99.90
47921;DHT22;33686;48.770;9.186;2022-10-16T10:43:48;22.20;99.90
47921;DHT22;33686;48.770;9.186;2022-10-16T10:49:15;22.40;99.90
47921;DHT22;33686;48.770;9.186;2022-10-16T10:52:02;22.50;99.90
47921;DHT22;33686;48.770;9.186;2022-10-16T11:02:37;22.10;99.90
47921;DHT22;33686;48.770;9.186;2022-10-16T11:05:19;22.00;99.90
47921;DHT22;33686;48.770;9.186;2022-10-16T11:07:49;21.80;99.90
47921;DHT22;33686;48.770;9.186;2022-10-16T11:10:20;21.60;99.90
47921;DHT22;33686;48.770;9.186;2022-10-16T11:12:48;21.60;99.90
47921;DHT22;33686;48.770;9.186;2022-10-16T11:17:45;21.70;99.90
47921;DHT22;33686;48.770;9.186;2022-10-16T11:20:20;21.80;99.90
47921;DHT22;33686;48.770;9.186;2022-10-16T11:23:02;21.60;99.90
47921;DHT22;33686;48.770;9.186;2022-10-16T11:25:31;21.70;99.90
47921;DHT22;33686;48.770;9.186;2022-10-16T11:30:33;21.60;99.90
47921;DHT22;33686;48.770;9.186;2022-10-16T11:35:48;21.70;99.90
47921;DHT22;33686;48.770;9.186;2022-10-16T11:41:03;21.80;99.90
47921;DHT22;33686;48.770;9.186;2022-10-16T11:43:37;21.80;99.90
47921;DHT22;33686;48.770;9.186;2022-10-16T11:46:17;21.70;99.90
47921;DHT22;33686;48.770;9.186;2022-10-16T11:48:46;21.80;99.90
47921;DHT22;33686;48.770;9.186;2022-10-16T11:51:26;22.00;99.90
47921;DHT22;33686;48.770;9.186;2022-10-16T11:56:40;22.10;99.90
47921;DHT22;33686;48.770;9.186;2022-10-16T12:01:46;22.40;99.90
47921;DHT22;33686;48.770;9.186;2022-10-16T12:06:42;22.50;99.90
47921;DHT22;33686;48.770;9.186;2022-10-16T12:09:24;22.40;99.90
47921;DHT22;33686;48.770;9.186;2022-10-16T12:11:51;22.40;99.90
47921;DHT22;33686;48.770;9.186;2022-10-16T12:19:16;22.40;99.90
47921;DHT22;33686;48.770;9.186;2022-10-16T12:21:43;22.40;99.90
47921;DHT22;33686;48.770;9.186;2022-10-16T12:27:20;22.60;99.90
47921;DHT22;33686;48.770;9.186;2022-10-16T12:29:47;22.80;99.90
47921;DHT22;33686;48.770;9.186;2022-10-16T12:34:47;23.10;99.90
47921;DHT22;33686;48.770;9.186;2022-10-16T12:39:38;23.20;99.90
47921;DHT22;33686;48.770;9.186;2022-10-16T12:42:05;23.30;99.90
47921;DHT22;33686;48.770;9.186;2022-10-16T12:44:32;23.30;99.90
47921;DHT22;33686;48.770;9.186;2022-10-16T12:46:58;23.20;99.90
47921;DHT22;33686;48.770;9.186;2022-10-16T12:49:30;23.00;99.90
47921;DHT22;33686;48.770;9.186;2022-10-16T12:51:56;23.00;99.90
47921;DHT22;33686;48.770;9.186;2022-10-16T12:54:35;22.90;99.90
47921;DHT22;33686;48.770;9.186;2022-10-16T12:57:05;22.70;99.90
47921;DHT22;33686;48.770;9.186;2022-10-16T13:10:26;22.50;99.90
47921;DHT22;33686;48.770;9.186;2022-10-16T13:18:16;22.50;99.90
47921;DHT22;33686;48.770;9.186;2022-10-16T13:23:29;22.60;99.90
47921;DHT22;33686;48.770;9.186;2022-10-16T13:28:41;22.60;99.90
47921;DHT22;33686;48.770;9.186;2022-10-16T13:31:11;22.50;99.90
47921;DHT22;33686;48.770;9.186;2022-10-16T13:33:39;22.60;99.90
47921;DHT22;33686;48.770;9.186;2022-10-16T13:36:06;22.50;99.90
47921;DHT22;33686;48.770;9.186;2022-10-16T13:38:33;22.50;99.90
47921;DHT22;33686;48.770;9.186;2022-10-16T13:41:06;22.50;99.90
47921;DHT22;33686;48.770;9.186;2022-10-16T13:43:48;22.60;99.90
47921;DHT22;33686;48.770;9.186;2022-10-16T13:46:24;22.70;99.90
47921;DHT22;33686;48.770;9.186;2022-10-16T13:49:23;22.80;99.90
47921;DHT22;33686;48.770;9.186;2022-10-16T13:51:53;22.90;99.90
47921;DHT22;33686;48.770;9.186;2022-10-16T13:54:18;23.00;99.90
47921;DHT22;33686;48.770;9.186;2022-10-16T13:56:44;23.00;99.90
47921;DHT22;33686;48.770;9.186;2022-10-16T13:59:26;23.00;99.90
47921;DHT22;33686;48.770;9.186;2022-10-16T14:01:53;22.70;99.90
47921;DHT22;33686;48.770;9.186;2022-10-16T14:04:20;22.50;99.90
47921;DHT22;33686;48.770;9.186;2022-10-16T14:06:47;22.40;99.90
47921;DHT22;33686;48.770;9.186;2022-10-16T14:09:17;22.40;99.90
47921;DHT22;33686;48.770;9.186;2022-10-16T14:11:47;22.40;99.90
47921;DHT22;33686;48.770;9.186;2022-10-16T14:14:13;22.40;99.90
47921;DHT22;33686;48.770;9.186;2022-10-16T14:16:40;22.00;99.90
47921;DHT22;33686;48.770;9.186;2022-10-16T14:19:06;21.80;99.90
47921;DHT22;33686;48.770;9.186;2022-10-16T14:21:34;21.70;99.90
47921;DHT22;33686;48.770;9.186;2022-10-16T14:23:59;21.80;99.90
47921;DHT22;33686;48.770;9.186;2022-10-16T14:26:40;21.70;99.90
47921;DHT22;33686;48.770;9.186;2022-10-16T14:29:13;21.60;99.90
47921;DHT22;33686;48.770;9.186;2022-10-16T14:31:39;21.50;99.90
47921;DHT22;33686;48.770;9.186;2022-10-16T14:36:49;21.40;99.90
47921;DHT22;33686;48.770;9.186;2022-10-16T14:39:19;21.30;99.90
47921;DHT22;33686;48.770;9.186;2022-10-16T14:41:47;21.30;99.90
47921;DHT22;33686;48.770;9.186;2022-10-16T14:44:13;21.30;99.90
47921;DHT22;33686;48.770;9.186;2022-10-16T14:46:39;21.30;99.90
47921;DHT22;33686;48.770;9.186;2022-10-16T14:51:35;21.10;99.90
47921;DHT22;33686;48.770;9.186;2022-10-16T14:54:00;21.10;99.90
47921;DHT22;33686;48.770;9.186;2022-10-16T14:56:31;21.10;99.90
47921;DHT22;33686;48.770;9.186;2022-10-16T14:58:59;21.10;99.90
47921;DHT22;33686;48.770;9.186;2022-10-16T15:01:25;21.20;99.90
47921;DHT22;33686;48.770;9.186;2022-10-16T15:03:50;21.30;99.90
47921;DHT22;33686;48.770;9.186;2022-10-16T15:06:17;21.30;99.90
47921;DHT22;33686;48.770;9.186;2022-10-16T15:08:43;21.20;99.90
47921;DHT22;33686;48.770;9.186;2022-10-16T15:11:12;21.20;99.90
47921;DHT22;33686;48.770;9.186;2022-10-16T15:13:39;21.20;99.90
47921;DHT22;33686;48.770;9.186;2022-10-16T15:16:04;21.20;99.90
47921;DHT22;33686;48.770;9.186;2022-10-16T15:18:32;21.20;99.90
47921;DHT22;33686;48.770;9.186;2022-10-16T15:20:58;21.20;99.90
47921;DHT22;33686;48.770;9.186;2022-10-16T15:23:23;21.20;99.90
47921;DHT22;33686;48.770;9.186;2022-10-16T15:25:52;21.10;99.90
47921;DHT22;33686;48.770;9.186;2022-10-16T15:28:19;21.20;99.90
47921;DHT22;33686;48.770;9.186;2022-10-16T15:30:46;21.10;99.90
47921;DHT22;33686;48.770;9.186;2022-10-16T15:33:13;21.10;99.90
47921;DHT22;33686;48.770;9.186;2022-10-16T15:35:39;20.80;99.90
47921;DHT22;33686;48.770;9.186;2022-10-16T15:38:04;20.70;99.90
47921;DHT22;33686;48.770;9.186;2022-10-16T15:40:30;20.70;99.90
47921;DHT22;33686;48.770;9.186;2022-10-16T15:42:56;20.50;99.90
47921;DHT22;33686;48.770;9.186;2022-10-16T15:45:21;20.30;99.90
47921;DHT22;33686;48.770;9.186;2022-10-16T15:47:47;20.20;99.90
47921;DHT22;33686;48.770;9.186;2022-10-16T15:50:13;20.00;99.90
47921;DHT22;33686;48.770;9.186;2022-10-16T15:52:39;19.90;99.90
47921;DHT22;33686;48.770;9.186;2022-10-16T15:55:06;19.90;99.90
47921;DHT22;33686;48.770;9.186;2022-10-16T15:57:31;19.90;99.90
47921;DHT22;33686;48.770;9.186;2022-10-16T15:59:58;20.00;99.90
47921;DHT22;33686;48.770;9.186;2022-10-16T16:02:23;19.90;99.90
47921;DHT22;33686;48.770;9.186;2022-10-16T16:04:49;19.80;99.90
47921;DHT22;33686;48.770;9.186;2022-10-16T16:07:14;19.80;99.90
47921;DHT22;33686;48.770;9.186;2022-10-16T16:09:40;19.60;99.90
47921;DHT22;33686;48.770;9.186;2022-10-16T16:12:05;19.60;99.90
47921;DHT22;33686;48.770;9.186;2022-10-16T16:14:31;19.40;99.90
47921;DHT22;33686;48.770;9.186;2022-10-16T16:16:57;19.30;99.90
47921;DHT22;33686;48.770;9.186;2022-10-16T16:19:23;19.20;99.90
47921;DHT22;33686;48.770;9.186;2022-10-16T16:21:49;19.20;99.90
47921;DHT22;33686;48.770;9.186;2022-10-16T16:24:14;19.10;99.90
47921;DHT22;33686;48.770;9.186;2022-10-16T16:26:40;19.00;99.90
47921;DHT22;33686;48.770;9.186;2022-10-16T16:29:12;18.90;99.90
47921;DHT22;33686;48.770;9.186;2022-10-16T16:31:38;18.90;99.90
47921;DHT22;33686;48.770;9.186;2022-10-16T16:34:04;18.70;99.90
47921;DHT22;33686;48.770;9.186;2022-10-16T16:36:30;18.80;99.90
47921;DHT22;33686;48.770;9.186;2022-10-16T16:38:57;18.70;99.90
47921;DHT22;33686;48.770;9.186;2022-10-16T16:41:24;18.70;99.90
47921;DHT22;33686;48.770;9.186;2022-10-16T16:43:51;18.60;99.90
47921;DHT22;33686;48.770;9.186;2022-10-16T16:46:17;18.50;99.90
47921;DHT22;33686;48.770;9.186;2022-10-16T16:48:43;18.40;99.90
47921;DHT22;33686;48.770;9.186;2022-10-16T16:51:15;18.30;99.90
47921;DHT22;33686;48.770;9.186;2022-10-16T16:53:43;18.40;99.90
47921;DHT22;33686;48.770;9.186;2022-10-16T16:56:09;18.50;99.90
47921;DHT22;33686;48.770;9.186;2022-10-16T16:58:34;18.50;99.90
47921;DHT22;33686;48.770;9.186;2022-10-16T17:01:00;18.40;99.90
47921;DHT22;33686;48.770;9.186;2022-10-16T17:03:27;18.50;99.90
47921;DHT22;33686;48.770;9.186;2022-10-16T17:05:59;18.60;99.90
47921;DHT22;33686;48.770;9.186;2022-10-16T17:08:25;18.60;99.90
47921;DHT22;33686;48.770;9.186;2022-10-16T17:10:51;18.70;99.90
47921;DHT22;33686;48.770;9.186;2022-10-16T17:13:27;18.70;99.90
47921;DHT22;33686;48.770;9.186;2022-10-16T17:15:53;18.70;99.90
47921;DHT22;33686;48.770;9.186;2022-10-16T17:18:19;18.60;99.90
47921;DHT22;33686;48.770;9.186;2022-10-16T17:20:46;18.50;99.90
47921;DHT22;33686;48.770;9.186;2022-10-16T17:23:12;18.50;99.90
47921;DHT22;33686;48.770;9.186;2022-10-16T17:25:38;18.40;99.90
47921;DHT22;33686;48.770;9.186;2022-10-16T17:28:04;18.30;99.90
47921;DHT22;33686;48.770;9.186;2022-10-16T17:30:30;18.20;99.90
47921;DHT22;33686;48.770;9.186;2022-10-16T17:32:56;18.10;99.90
47921;DHT22;33686;48.770;9.186;2022-10-16T17:35:22;18.00;99.90
47921;DHT22;33686;48.770;9.186;2022-10-16T17:37:47;17.90;99.90
47921;DHT22;33686;48.770;9.186;2022-10-16T17:40:13;17.90;99.90
47921;DHT22;33686;48.770;9.186;2022-10-16T17:42:38;17.90;99.90
47921;DHT22;33686;48.770;9.186;2022-10-16T17:45:04;17.90;99.90
47921;DHT22;33686;48.770;9.186;2022-10-16T17:47:30;17.90;99.90
47921;DHT22;33686;48.770;9.186;2022-10-16T17:49:55;17.90;99.90
47921;DHT22;33686;48.770;9.186;2022-10-16T17:52:23;17.80;99.90
47921;DHT22;33686;48.770;9.186;2022-10-16T17:54:51;17.70;99.90
47921;DHT22;33686;48.770;9.186;2022-10-16T17:57:17;17.70;99.90
47921;DHT22;33686;48.770;9.186;2022-10-16T17:59:43;17.60;99.90
47921;DHT22;33686;48.770;9.186;2022-10-16T18:02:08;17.60;99.90
47921;DHT22;33686;48.770;9.186;2022-10-16T18:04:34;17.50;99.90
47921;DHT22;33686;48.770;9.186;2022-10-16T18:07:00;17.40;99.90
47921;DHT22;33686;48.770;9.186;2022-10-16T18:09:26;17.30;99.90
47921;DHT22;33686;48.770;9.186;2022-10-16T18:11:52;17.30;99.90
47921;DHT22;33686;48.770;9.186;2022-10-16T18:14:25;17.30;99.90
47921;DHT22;33686;48.770;9.186;2022-10-16T18:16:51;17.20;99.90
47921;DHT22;33686;48.770;9.186;2022-10-16T18:19:17;17.10;99.90
47921;DHT22;33686;48.770;9.186;2022-10-16T18:21:43;17.00;99.90
47921;DHT22;33686;48.770;9.186;2022-10-16T18:24:09;17.10;99.90
47921;DHT22;33686;48.770;9.186;2022-10-16T18:26:34;17.00;99.90
47921;DHT22;33686;48.770;9.186;2022-10-16T18:29:00;17.10;99.90
47921;DHT22;33686;48.770;9.186;2022-10-16T18:31:27;17.10;99.90
47921;DHT22;33686;48.770;9.186;2022-10-16T18:33:53;17.00;99.90
47921;DHT22;33686;48.770;9.186;2022-10-16T18:36:21;16.90;99.90
47921;DHT22;33686;48.770;9.186;2022-10-16T18:38:47;16.80;99.90
47921;DHT22;33686;48.770;9.186;2022-10-16T18:41:13;16.70;99.90
47921;DHT22;33686;48.770;9.186;2022-10-16T18:43:38;16.70;99.90
47921;DHT22;33686;48.770;9.186;2022-10-16T18:46:09;16.70;99.90
47921;DHT22;33686;48.770;9.186;2022-10-16T18:48:34;16.70;99.90
47921;DHT22;33686;48.770;9.186;2022-10-16T18:53:45;16.70;99.90
47921;DHT22;33686;48.770;9.186;2022-10-16T18:56:12;16.60;99.90
47921;DHT22;33686;48.770;9.186;2022-10-16T18:58:39;16.60;99.90
47921;DHT22;33686;48.770;9.186;2022-10-16T19:01:06;16.80;99.90
47921;DHT22;33686;48.770;9.186;2022-10-16T19:03:32;16.70;99.90
47921;DHT22;33686;48.770;9.186;2022-10-16T19:05:59;16.80;99.90
47921;DHT22;33686;48.770;9.186;2022-10-16T19:08:24;16.80;99.90
47921;DHT22;33686;48.770;9.186;2022-10-16T19:10:50;16.80;99.90
47921;DHT22;33686;48.770;9.186;2022-10-16T19:13:16;16.80;99.90
47921;DHT22;33686;48.770;9.186;2022-10-16T19:15:41;16.70;99.90
47921;DHT22;33686;48.770;9.186;2022-10-16T19:18:07;16.60;99.90
47921;DHT22;33686;48.770;9.186;2022-10-16T19:20:33;16.60;99.90
47921;DHT22;33686;48.770;9.186;2022-10-16T19:22:59;16.50;99.90
47921;DHT22;33686;48.770;9.186;2022-10-16T19:25:24;16.50;99.90
47921;DHT22;33686;48.770;9.186;2022-10-16T19:27:52;16.60;99.90
47921;DHT22;33686;48.770;9.186;2022-10-16T19:30:18;16.60;99.90
47921;DHT22;33686;48.770;9.186;2022-10-16T19:32:44;16.50;99.90
47921;DHT22;33686;48.770;9.186;2022-10-16T19:35:10;16.60;99.90
47921;DHT22;33686;48.770;9.186;2022-10-16T19:37:36;16.60;99.90
47921;DHT22;33686;48.770;9.186;2022-10-16T19:40:02;16.50;99.90
47921;DHT22;33686;48.770;9.186;2022-10-16T19:42:28;16.50;99.90
47921;DHT22;33686;48.770;9.186;2022-10-16T19:44:54;16.50;99.90
47921;DHT22;33686;48.770;9.186;2022-10-16T19:47:19;16.40;99.90
47921;DHT22;33686;48.770;9.186;2022-10-16T19:49:45;16.30;99.90
47921;DHT22;33686;48.770;9.186;2022-10-16T19:52:11;16.30;99.90
47921;DHT22;33686;48.770;9.186;2022-10-16T19:54:37;16.30;99.90
47921;DHT22;33686;48.770;9.186;2022-10-16T19:57:03;16.20;99.90
47921;DHT22;33686;48.770;9.186;2022-10-16T19:59:29;16.20;99.90
47921;DHT22;33686;48.770;9.186;2022-10-16T20:01:55;16.20;99.90
47921;DHT22;33686;48.770;9.186;2022-10-16T20:04:21;16.10;99.90
47921;DHT22;33686;48.770;9.186;2022-10-16T20:06:46;16.10;99.90
47921;DHT22;33686;48.770;9.186;2022-10-16T20:09:12;16.10;99.90
47921;DHT22;33686;48.770;9.186;2022-10-16T20:11:37;16.00;99.90
47921;DHT22;33686;48.770;9.186;2022-10-16T20:14:03;16.00;99.90
47921;DHT22;33686;48.770;9.186;2022-10-16T20:16:29;16.10;99.90
47921;DHT22;33686;48.770;9.186;2022-10-16T20:18:55;16.10;99.90
47921;DHT22;33686;48.770;9.186;2022-10-16T20:21:22;16.10;99.90
47921;DHT22;33686;48.770;9.186;2022-10-16T20:23:49;16.10;99.90
47921;DHT22;33686;48.770;9.186;2022-10-16T20:26:15;16.10;99.90
47921;DHT22;33686;48.770;9.186;2022-10-16T20:28:41;16.10;99.90
47921;DHT22;33686;48.770;9.186;2022-10-16T20:31:12;16.20;99.90
47921;DHT22;33686;48.770;9.186;2022-10-16T20:33:40;16.10;99.90
47921;DHT22;33686;48.770;9.186;2022-10-16T20:36:10;16.10;99.90
47921;DHT22;33686;48.770;9.186;2022-10-16T20:38:36;16.10;99.90
47921;DHT22;33686;48.770;9.186;2022-10-16T20:41:02;16.10;99.90
47921;DHT22;33686;48.770;9.186;2022-10-16T20:43:28;16.10;99.90
47921;DHT22;33686;48.770;9.186;2022-10-16T20:46:04;16.20;99.90
47921;DHT22;33686;48.770;9.186;2022-10-16T20:48:30;16.10;99.90
47921;DHT22;33686;48.770;9.186;2022-10-16T20:50:56;16.00;99.90
47921;DHT22;33686;48.770;9.186;2022-10-16T20:53:24;15.90;99.90
47921;DHT22;33686;48.770;9.186;2022-10-16T20:55:49;15.90;99.90
47921;DHT22;33686;48.770;9.186;2022-10-16T20:58:15;15.90;99.90
47921;DHT22;33686;48.770;9.186;2022-10-16T21:00:42;15.80;99.90
47921;DHT22;33686;48.770;9.186;2022-10-16T21:03:09;15.80;99.90
47921;DHT22;33686;48.770;9.186;2022-10-16T21:05:38;15.80;99.90
47921;DHT22;33686;48.770;9.186;2022-10-16T21:08:04;15.80;99.90
47921;DHT22;33686;48.770;9.186;2022-10-16T21:10:30;15.80;99.90
47921;DHT22;33686;48.770;9.186;2022-10-16T21:12:55;15.70;99.90
47921;DHT22;33686;48.770;9.186;2022-10-16T21:15:21;15.70;99.90
47921;DHT22;33686;48.770;9.186;2022-10-16T21:17:47;15.70;99.90
47921;DHT22;33686;48.770;9.186;2022-10-16T21:20:12;15.80;99.90
47921;DHT22;33686;48.770;9.186;2022-10-16T21:22:38;15.80;99.90
47921;DHT22;33686;48.770;9.186;2022-10-16T21:25:04;15.70;99.90
47921;DHT22;33686;48.770;9.186;2022-10-16T21:27:34;15.70;99.90
47921;DHT22;33686;48.770;9.186;2022-10-16T21:30:00;15.70;99.90
47921;DHT22;33686;48.770;9.186;2022-10-16T21:32:25;15.70;99.90
47921;DHT22;33686;48.770;9.186;2022-10-16T21:34:51;15.60;99.90
47921;DHT22;33686;48.770;9.186;2022-10-16T21:37:16;15.50;99.90
47921;DHT22;33686;48.770;9.186;2022-10-16T21:39:42;15.40;99.90
47921;DHT22;33686;48.770;9.186;2022-10-16T21:42:08;15.40;99.90
47921;DHT22;33686;48.770;9.186;2022-10-16T21:44:33;15.50;99.90
47921;DHT22;33686;48.770;9.186;2022-10-16T21:46:59;15.40;99.90
47921;DHT22;33686;48.770;9.186;2022-10-16T21:49:25;15.50;99.90
47921;DHT22;33686;48.770;9.186;2022-10-16T21:51:50;15.40;99.90
47921;DHT22;33686;48.770;9.186;2022-10-16T21:54:17;15.40;99.90
47921;DHT22;33686;48.770;9.186;2022-10-16T21:56:43;15.30;99.90
47921;DHT22;33686;48.770;9.186;2022-10-16T21:59:10;15.30;99.90
